CheckWX is a tool to help pilots better visualize weather data.  It is not intended as a substitute for an official pre-flight weather briefing.

17:06:30 UTC

SARE TAF
Resistencia International Airport
Resistencia, Argentina
TAF SARE 301700Z 3018/3118 34005KT CAVOK TX29/3018Z TN10/3110Z BECMG 3020/3022 23010KT BECMG 3100/3102 16015KT 8000 -RA OVC010 BKN050

May-30@
18:00 UTC

May-30 @ 18:00 UTC

May-30@
20:00 UTC

May-30 @ 20:00 UTC

TAF SARE 301700Z 3018/3118 34005KT CAVOK TX29/3018Z TN10/3110Z

Expired

Wind
  • 340° at 5 KTS
Cloud Levels
  • No significant clouds

May-30@
20:00 UTC

May-30 @ 20:00 UTC

May-31@
00:00 UTC

May-31 @ 00:00 UTC

BECMG 3020/3022 23010KT

Expired

Wind
  • 230° at 10 KTS
Cloud Levels
  • No significant clouds

May-31@
00:00 UTC

May-31 @ 00:00 UTC

May-31@
18:00 UTC

May-31 @ 18:00 UTC

BECMG 3100/3102 16015KT 8000 -RA OVC010 BKN050

Becoming

Becoming Conditions expected by Sun, May 31, 2020 @ 02:00 UTC

Wind
  • 160° at 15 KTS
Conditions
Light Rain
Cloud Levels
  • Overcast at 1,000' AGL
  • Broken at 5,000' AGL